Main page
METAR-TAF:

METAR-TAF

Airports :

Oslo, Norway

Oslo Airport. Gardermoen

latitude: 60-12N, longitude: 011-05E, elevation: 208 m

Current weather observation

The report was made 38 minutes ago, at 18:20 UTC
Calm wind
Temperature -4°C
Humidity 93%
Pressure 1002 hPa
Visibility: 9000 m
Broken clouds at a height of 600 ft
light snow

METAR: ENGM 191820Z 00000KT 9000 -SN BKN006 M04/M05 Q1002 TEMPO 4000 -SN BR OVC004

Time: 19:58 (18:58 UTC)

Forecast

Forecast valid from 19 at 18 UTC to 20 at 18 UTC
Wind 5 kt from variable directions
Visibility 10 km or more
Scattered clouds at a height of 400 ft
Broken clouds at a height of 800 ft
light snow
Temporary
from 19 at 18 UTC to 20 at 12 UTC
Visibility: 2000 m
Overcast at a height of 400 ft
light snow, mist
Temporary
from 20 at 12 UTC to 20 at 18 UTC
Few clouds at a height of 800 ft
Broken clouds at a height of 2000 ft

TAF: ENGM 1918/2018 VRB05KT 9999 -SN SCT004 BKN008 TEMPO 1918/2012 2000 -SN BR OVC004 TEMPO 2012/2018 FEW008 BKN020

Weather observations and forecasts of more than 4000 airports (METAR and TAF reports).

The available stations are represented by yellow and red dots on the map.

Hover mouse over dot to see the name of the station.

Then click to see weather observations and forecasts.

To change the map : click on the green buttons with a black cross to zoom in, on the green button with a dash to zoom out, or on the green arrows for adjacent maps.


METAR-TAF: